Time;durP1;ratioP1;P1;durP2;ratioP2;P2;SDS_P1;SDS_P2;PMS_P1;PMS_P2;Temp;Humidity;BMP_temperature;BMP_pressure;BME280_temperature;BME280_humidity;BME280_pressure;Samples;Min_cycle;Max_cycle;Signal;HPM_P1;HPM_P2
2023/02/16 00:05:53;;;;;;;75.30;47.20;;;;;;;-2.57;100.00;100288.88;451421;1251;142273;-68
2023/02/16 00:15:59;;;;;;;81.30;46.40;;;;;;;-2.65;100.00;100283.05;450209;1248;165574;-68
2023/02/16 00:26:05;;;;;;;74.70;45.30;;;;;;;-2.73;100.00;100277.89;451184;1248;143218;-68
2023/02/16 00:36:11;;;;;;;69.00;43.30;;;;;;;-2.78;100.00;100273.25;450893;1249;142213;-68
2023/02/16 00:46:17;;;;;;;75.50;46.90;;;;;;;-2.93;100.00;100272.88;450693;1249;142078;-68
2023/02/16 00:56:23;;;;;;;86.40;49.00;;;;;;;-3.10;100.00;100256.39;451265;1248;145584;-69
2023/02/16 01:16:52;;;;;;;74.70;42.50;;;;;;;-3.35;100.00;100251.67;451001;1248;211775;-68
2023/02/16 01:26:58;;;;;;;75.20;46.80;;;;;;;-3.31;100.00;100247.06;451437;1249;143126;-68
2023/02/16 01:37:03;;;;;;;82.20;48.50;;;;;;;-3.40;100.00;100232.15;450604;1249;142597;-68
2023/02/16 01:47:23;;;;;;;72.60;46.10;;;;;;;-3.42;100.00;100231.11;451311;1248;142740;-68
2023/02/16 01:57:39;;;;;;;73.40;44.00;;;;;;;-3.57;100.00;100234.30;451463;1249;145146;-68
2023/02/16 02:07:52;;;;;;;72.50;40.30;;;;;;;-3.65;100.00;100232.39;447786;1248;209832;-67
2023/02/16 02:17:58;;;;;;;70.70;42.80;;;;;;;-3.78;100.00;100219.67;442352;1249;142633;-67
2023/02/16 02:28:12;;;;;;;71.90;41.00;;;;;;;-3.89;100.00;100205.41;449722;1249;143112;-67
2023/02/16 02:38:25;;;;;;;67.70;41.90;;;;;;;-3.92;100.00;100202.31;451464;1249;141592;-67
2023/02/16 02:48:34;;;;;;;65.70;40.50;;;;;;;-3.96;100.00;100187.25;451523;1248;142654;-67
2023/02/16 03:09:07;;;;;;;68.50;42.40;;;;;;;-3.98;100.00;100155.42;446044;1248;142406;-68
2023/02/16 03:29:40;;;;;;;60.10;40.00;;;;;;;-4.06;100.00;100161.19;451299;1248;143441;-68
2023/02/16 03:50:11;;;;;;;60.70;39.70;;;;;;;-4.11;100.00;100140.98;451402;1249;142782;-67
2023/02/16 04:00:17;;;;;;;59.00;38.50;;;;;;;-4.15;100.00;100124.55;447729;1249;142976;-68
2023/02/16 04:10:24;;;;;;;62.50;37.10;;;;;;;-4.21;100.00;100117.16;440836;1247;143029;-67
2023/02/16 04:20:32;;;;;;;59.50;34.70;;;;;;;-4.25;100.00;100123.83;451421;1249;143347;-68
2023/02/16 04:30:38;;;;;;;55.30;34.30;;;;;;;-4.20;100.00;100117.17;450366;1249;142629;-68
2023/02/16 04:40:42;;;;;;;;;;;;;;;-4.15;100.00;100110.02;436606;1250;142377;-68
2023/02/16 04:50:48;;;;;;;53.10;35.40;;;;;;;-4.23;100.00;100112.89;443836;1249;128750;-68
2023/02/16 05:00:52;;;;;;;;;;;;;;;-4.32;100.00;100109.59;444636;1249;141777;-68
2023/02/16 05:21:34;;;;;;;53.80;34.80;;;;;;;-4.30;100.00;100112.84;443731;1249;143512;-68
2023/02/16 05:31:40;;;;;;;57.60;34.40;;;;;;;-4.21;100.00;100109.14;435089;1249;211251;-68
2023/02/16 05:41:46;;;;;;;50.90;33.30;;;;;;;-4.24;100.00;100109.46;437195;1250;142840;-68
2023/02/16 05:51:52;;;;;;;57.30;36.90;;;;;;;-4.29;100.00;100107.55;434057;1252;142362;-68
2023/02/16 06:01:58;;;;;;;56.70;36.50;;;;;;;-4.36;100.00;100109.58;437636;1249;142067;-68
2023/02/16 06:12:04;;;;;;;65.00;37.10;;;;;;;-4.25;100.00;100112.17;443456;1249;141852;-68
2023/02/16 06:22:10;;;;;;;58.50;35.40;;;;;;;-3.94;100.00;100108.90;450315;1248;142742;-68
2023/02/16 06:32:17;;;;;;;53.70;32.80;;;;;;;-3.61;100.00;100101.65;450972;1249;142032;-68
2023/02/16 06:42:22;;;;;;;54.60;32.50;;;;;;;-3.09;100.00;100101.70;451072;1249;142852;-69
2023/02/16 06:52:28;;;;;;;51.00;31.00;;;;;;;-2.35;100.00;100105.89;450513;1249;144137;-69
2023/02/16 07:02:36;;;;;;;52.60;35.00;;;;;;;-0.52;100.00;100099.48;451195;1249;143347;-69
2023/02/16 07:12:42;;;;;;;46.30;32.30;;;;;;;2.00;100.00;100089.80;448300;1249;143755;-68
2023/02/16 07:22:48;;;;;;;48.40;35.50;;;;;;;4.88;100.00;100080.02;436716;1250;143265;-69
2023/02/16 07:32:53;;;;;;;39.00;31.30;;;;;;;7.30;100.00;100074.52;451190;1249;182853;-69
2023/02/16 07:43:03;;;;;;;36.00;29.60;;;;;;;9.48;99.68;100074.44;450450;1248;161722;-68
2023/02/16 07:53:09;;;;;;;35.70;29.30;;;;;;;10.75;94.51;100077.09;451256;1248;143264;-68
2023/02/16 08:03:17;;;;;;;38.60;32.60;;;;;;;11.35;89.96;100082.45;450207;1249;142913;-69
2023/02/16 08:13:23;;;;;;;34.80;30.90;;;;;;;12.22;86.98;100079.47;450489;1248;142205;-69
2023/02/16 08:23:29;;;;;;;33.10;27.20;;;;;;;12.62;83.28;100078.03;451225;1249;141190;-67
2023/02/16 08:33:35;;;;;;;37.10;29.10;;;;;;;13.01;81.04;100073.54;450625;1249;144142;-69
2023/02/16 08:43:41;;;;;;;30.90;27.30;;;;;;;13.53;77.68;100070.05;447616;1248;141898;-69
2023/02/16 08:53:47;;;;;;;30.20;25.00;;;;;;;13.49;75.11;100069.14;451221;1248;141920;-70
2023/02/16 09:03:53;;;;;;;26.30;23.50;;;;;;;13.41;72.70;100068.77;446037;1249;142066;-70
2023/02/16 09:13:59;;;;;;;29.60;24.30;;;;;;;13.64;72.48;100069.15;440133;1250;140911;-70
2023/02/16 09:24:05;;;;;;;33.20;26.10;;;;;;;14.28;69.19;100069.48;451092;1249;143233;-68
2023/02/16 09:34:17;;;;;;;29.40;24.00;;;;;;;14.27;68.37;100061.73;450416;1249;142293;-68
2023/02/16 09:44:31;;;;;;;33.70;25.90;;;;;;;13.83;65.94;100051.10;451170;1249;142139;-69
2023/02/16 09:54:45;;;;;;;31.80;25.10;;;;;;;11.60;67.46;100054.11;450336;1249;141678;-68
2023/02/16 10:05:03;;;;;;;27.20;22.70;;;;;;;10.23;68.29;100044.42;451050;1249;141937;-68
2023/02/16 10:15:15;;;;;;;35.50;23.20;;;;;;;8.39;69.00;100031.04;448055;1249;143147;-67
2023/02/16 10:25:26;;;;;;;30.70;23.60;;;;;;;7.64;71.01;100027.02;450284;1249;141941;-68
2023/02/16 10:35:42;;;;;;;36.10;25.60;;;;;;;7.31;72.03;100030.01;451120;1249;142979;-68
2023/02/16 10:45:52;;;;;;;39.70;23.50;;;;;;;6.87;73.13;100036.73;450408;1249;142444;-69
2023/02/16 10:55:59;;;;;;;39.70;24.80;;;;;;;6.86;74.45;100033.47;451176;1250;141853;-69
2023/02/16 11:06:18;;;;;;;32.90;22.40;;;;;;;6.81;74.43;100034.04;444314;1249;142525;-68
2023/02/16 11:16:24;;;;;;;29.10;21.70;;;;;;;6.52;74.98;100023.32;450380;1249;142740;-68
2023/02/16 11:26:30;;;;;;;47.10;24.10;;;;;;;6.41;75.41;100021.00;451200;1249;141299;-68
2023/02/16 11:36:40;;;;;;;29.00;22.00;;;;;;;6.59;76.20;100016.64;450409;1249;142401;-69
2023/02/16 11:46:46;;;;;;;28.60;19.60;;;;;;;6.68;76.08;100014.70;451201;1248;141301;-68
2023/02/16 11:57:05;;;;;;;34.30;22.30;;;;;;;6.73;76.50;100016.77;451141;1250;141393;-68
2023/02/16 12:07:22;;;;;;;33.10;22.40;;;;;;;6.83;76.47;99999.83;450532;1249;141539;-69
2023/02/16 12:17:41;;;;;;;32.60;22.70;;;;;;;6.64;76.63;99994.89;451135;1249;141946;-70
2023/02/16 12:27:54;;;;;;;30.40;22.20;;;;;;;6.53;76.99;99991.82;450300;1249;141529;-68
2023/02/16 12:38:10;;;;;;;33.90;23.40;;;;;;;6.43;77.52;99984.05;449304;1249;140508;-68
2023/02/16 12:48:30;;;;;;;31.50;21.10;;;;;;;6.44;77.88;99972.35;451209;1249;140508;-70
2023/02/16 12:58:40;;;;;;;29.10;21.30;;;;;;;6.42;78.26;99969.85;450562;1249;141854;-69
2023/02/16 13:08:52;;;;;;;29.70;20.10;;;;;;;6.66;78.64;99966.44;450659;1250;140881;-69
2023/02/16 13:18:58;;;;;;;35.30;21.80;;;;;;;6.71;78.43;99967.77;449905;1250;142429;-68
2023/02/16 13:29:37;;;;;;;60.40;25.30;;;;;;;6.69;78.68;99960.39;450710;1250;141538;-68
2023/02/16 13:40:31;;;;;;;25.90;18.80;;;;;;;6.71;79.02;99951.92;449862;1251;140899;-69
2023/02/16 13:50:37;;;;;;;26.70;17.60;;;;;;;6.64;78.67;99957.28;436322;1253;142275;-69
2023/02/16 14:00:46;;;;;;;29.60;18.50;;;;;;;6.62;79.14;99957.20;442995;1253;142108;-69
2023/02/16 14:11:04;;;;;;;27.50;17.60;;;;;;;6.59;78.95;99955.38;450515;1251;142888;-69
2023/02/16 14:21:26;;;;;;;34.40;18.50;;;;;;;6.58;78.96;99946.41;438073;1253;142105;-69
2023/02/16 14:31:39;;;;;;;25.00;16.50;;;;;;;6.58;78.99;99940.98;439428;1251;142683;-69
2023/02/16 14:41:46;;;;;;;28.20;18.40;;;;;;;6.53;79.10;99945.36;438969;1253;142077;-68
2023/02/16 14:52:25;;;;;;;27.10;18.80;;;;;;;6.32;79.32;99939.10;449629;1251;143426;-69
2023/02/16 15:02:34;;;;;;;32.00;21.30;;;;;;;6.07;79.63;99932.09;450397;1251;142451;-69
2023/02/16 15:12:42;;;;;;;30.60;19.90;;;;;;;5.78;79.88;99912.35;440243;1253;193937;-69
2023/02/16 15:22:52;;;;;;;31.70;18.70;;;;;;;5.46;80.40;99903.46;450551;1251;141818;-69
2023/02/16 15:33:01;;;;;;;30.90;19.50;;;;;;;5.21;80.89;99899.70;439380;1253;141626;-69
2023/02/16 15:43:22;;;;;;;27.50;17.60;;;;;;;4.97;81.41;99891.90;448928;1251;143141;-69
2023/02/16 15:53:36;;;;;;;28.40;18.20;;;;;;;4.71;82.00;99888.63;450287;1250;142628;-68
2023/02/16 16:03:45;;;;;;;26.70;18.80;;;;;;;4.43;82.55;99887.86;446343;1249;142303;-69
2023/02/16 16:13:51;;;;;;;47.40;26.00;;;;;;;4.11;82.99;99886.66;451036;1249;142500;-69
2023/02/16 16:24:00;;;;;;;45.80;24.40;;;;;;;3.72;83.40;99884.95;451260;1249;142471;-67
2023/02/16 16:34:07;;;;;;;59.70;34.70;;;;;;;3.29;83.97;99891.23;445068;1249;143379;-67
2023/02/16 16:44:29;;;;;;;51.10;31.10;;;;;;;2.87;85.21;99891.02;434386;1252;142783;-67
2023/02/16 16:54:38;;;;;;;45.60;26.70;;;;;;;2.57;85.96;99903.42;446532;1248;141635;-68
2023/02/16 17:04:44;;;;;;;106.10;58.30;;;;;;;2.35;86.49;99900.17;451258;1249;142796;-68
2023/02/16 17:14:49;;;;;;;75.00;40.20;;;;;;;2.16;87.25;99903.91;451256;1249;142456;-67
2023/02/16 17:24:55;;;;;;;67.80;36.80;;;;;;;1.98;87.73;99899.15;450289;1249;143315;-68
2023/02/16 17:35:01;;;;;;;75.80;45.50;;;;;;;1.81;88.34;99901.61;451478;1250;143188;-68
2023/02/16 17:45:07;;;;;;;73.80;42.40;;;;;;;1.65;89.17;99907.48;451477;1249;142496;-68
2023/02/16 17:55:13;;;;;;;59.90;36.70;;;;;;;1.51;89.49;99913.11;450694;1249;142333;-68
2023/02/16 18:05:19;;;;;;;61.70;36.50;;;;;;;1.41;90.03;99919.20;451355;1249;144974;-68
2023/02/16 18:15:25;;;;;;;58.10;36.10;;;;;;;1.28;90.42;99920.86;451337;1249;142030;-67
2023/02/16 18:25:31;;;;;;;52.30;33.00;;;;;;;1.09;90.80;99916.23;450512;1249;141777;-67
2023/02/16 18:35:37;;;;;;;56.50;36.60;;;;;;;0.93;91.45;99916.35;451506;1249;141774;-68
2023/02/16 18:45:43;;;;;;;57.80;36.90;;;;;;;0.85;92.05;99916.34;450708;1249;141798;-67
2023/02/16 18:55:49;;;;;;;55.10;35.70;;;;;;;0.75;92.60;99922.04;446709;1249;142969;-68
2023/02/16 19:05:55;;;;;;;55.70;36.10;;;;;;;0.66;93.12;99925.82;438834;1249;142536;-68
2023/02/16 19:16:00;;;;;;;55.80;35.40;;;;;;;0.52;93.39;99919.35;450649;1248;142567;-67
2023/02/16 19:26:09;;;;;;;68.60;41.30;;;;;;;0.42;93.76;99911.93;451075;1249;186225;-68
2023/02/16 19:36:17;;;;;;;74.00;45.00;;;;;;;0.31;94.10;99919.17;451156;1248;142608;-69
2023/02/16 19:46:23;;;;;;;103.30;56.10;;;;;;;0.18;94.31;99921.29;440797;1250;142455;-68
2023/02/16 19:56:29;;;;;;;109.90;60.90;;;;;;;0.07;94.79;99914.04;451155;1249;142449;-68
2023/02/16 20:06:38;;;;;;;118.50;70.90;;;;;;;-0.06;94.82;99902.89;441381;1249;143671;-67
2023/02/16 20:16:43;;;;;;;142.50;81.40;;;;;;;-0.23;94.78;99896.76;451457;1249;143647;-69
2023/02/16 20:26:50;;;;;;;124.30;76.90;;;;;;;-0.40;94.83;99892.34;446237;1248;143127;-67
2023/02/16 20:36:57;;;;;;;104.90;63.90;;;;;;;-0.54;94.80;99895.13;444707;1249;143796;-68
2023/02/16 20:47:03;;;;;;;104.70;61.40;;;;;;;-0.70;94.54;99898.42;451256;1248;143702;-67
2023/02/16 20:57:09;;;;;;;91.40;57.70;;;;;;;-0.75;94.57;99894.53;447603;1249;141637;-68
2023/02/16 21:07:30;;;;;;;92.30;58.40;;;;;;;-0.79;95.44;99890.98;434851;1249;143259;-68
2023/02/16 21:17:36;;;;;;;92.60;57.20;;;;;;;-0.87;95.61;99893.80;437813;1248;143659;-68
2023/02/16 21:27:42;;;;;;;63.70;36.40;;;;;;;-0.92;96.13;99890.45;450451;1249;144909;-68
2023/02/16 21:37:48;;;;;;;83.50;51.00;;;;;;;-0.91;96.29;99887.35;447246;1249;143644;-68
2023/02/16 21:58:18;;;;;;;71.20;45.20;;;;;;;-0.83;96.87;99884.50;448874;1249;143234;-67
2023/02/16 22:08:23;;;;;;;75.40;47.00;;;;;;;-0.79;97.56;99881.00;447374;1249;143101;-67
2023/02/16 22:18:29;;;;;;;83.40;50.30;;;;;;;-0.70;98.25;99878.48;451029;1249;142951;-67
2023/02/16 22:28:36;;;;;;;77.90;47.30;;;;;;;-0.61;98.42;99879.91;450344;1249;141804;-68
2023/02/16 22:38:44;;;;;;;82.90;50.00;;;;;;;-0.56;98.49;99877.60;447978;1249;142396;-68
2023/02/16 22:48:50;;;;;;;81.60;49.90;;;;;;;-0.49;98.71;99880.45;450075;1249;142594;-66
2023/02/16 22:58:57;;;;;;;89.70;52.40;;;;;;;-0.47;98.81;99876.63;450811;1249;142394;-67
2023/02/16 23:09:05;;;;;;;98.40;60.10;;;;;;;-0.52;98.83;99864.14;451004;1249;142570;-67
2023/02/16 23:19:13;;;;;;;96.70;60.10;;;;;;;-0.53;99.12;99857.61;450224;1248;142158;-67
2023/02/16 23:29:19;;;;;;;85.40;53.60;;;;;;;-0.45;99.55;99847.52;447102;1249;142901;-67
2023/02/16 23:39:25;;;;;;;83.20;52.30;;;;;;;-0.38;99.63;99838.15;446031;1249;142727;-67
2023/02/16 23:49:31;;;;;;;82.80;52.00;;;;;;;-0.37;99.88;99837.79;441751;1249;141961;-66
2023/02/16 23:59:37;;;;;;;73.30;49.70;;;;;;;-0.35;99.87;99828.30;451018;1249;154859;-66
